Terminal Aerodrome Forecast
Issued by NWS

Home | Current Version | Previous Version | Graphics & Text | Print | Product List | Glossary On
Versions: 1 2 3 4 5 6 7 8 9 10 11 12 13 14 15 16 17 18 19 20 21
000
FTUS43 KGRB 270321 AAA
TAFCWA
TAF AMD
KCWA 270321Z 2703/2724 02006KT P6SM -SHRA SCT007 OVC015
      TEMPO 2703/2704 4SM -SHRA BR BKN007
     FM270400 28010G17KT 4SM -RA BR BKN007 OVC015
      TEMPO 2705/2709 1SM +RA BR
     FM271300 27012G20KT P6SM VCSH BKN015 BKN035
     FM271700 26010G17KT P6SM VCSH BKN035=

USA.gov is the U.S. government's official web portal to all federal, state and local government web resources and services.